Time;durP1;ratioP1;P1;durP2;ratioP2;P2;SDS_P1;SDS_P2;PMS_P1;PMS_P2;Temp;Humidity;BMP_temperature;BMP_pressure;BME280_temperature;BME280_humidity;BME280_pressure;Samples;Min_cycle;Max_cycle;Signal;HPM_P1;HPM_P2
2022/12/31 00:01:49;;;;;;;1.20;1.05;;;12.00;99.90;;;;;;5007011;28;20038;-68
2022/12/31 00:04:15;;;;;;;1.10;0.90;;;12.00;99.90;;;;;;5006270;28;20094;-67
2022/12/31 00:06:40;;;;;;;1.00;0.73;;;12.00;99.90;;;;;;5008758;28;20152;-67
2022/12/31 00:09:07;;;;;;;2.42;1.08;;;12.00;99.90;;;;;;5023087;28;20742;-66
2022/12/31 00:11:34;;;;;;;0.50;0.50;;;12.00;99.90;;;;;;5005383;28;20021;-67
2022/12/31 00:14:00;;;;;;;0.47;0.47;;;12.00;99.90;;;;;;5005748;28;20069;-68
2022/12/31 00:16:35;;;;;;;1.83;0.80;;;12.10;99.90;;;;;;5013560;28;20030;-67
2022/12/31 00:19:02;;;;;;;0.60;0.52;;;12.10;99.90;;;;;;5004676;28;20556;-67
2022/12/31 00:21:30;;;;;;;0.55;0.55;;;12.10;99.90;;;;;;5008517;28;20435;-67
2022/12/31 00:23:56;;;;;;;0.68;0.60;;;12.20;99.90;;;;;;5009780;28;20053;-66
2022/12/31 00:26:25;;;;;;;1.13;0.70;;;12.30;99.90;;;;;;5008425;28;20458;-68
2022/12/31 00:28:53;;;;;;;0.80;0.47;;;12.20;99.90;;;;;;5002931;28;20029;-68
2022/12/31 00:31:30;;;;;;;0.47;0.47;;;12.40;99.90;;;;;;5001159;28;20072;-68
2022/12/31 00:33:56;;;;;;;1.02;0.50;;;12.50;99.90;;;;;;5010798;28;20029;-67
2022/12/31 00:36:31;;;;;;;2.35;0.63;;;12.50;99.90;;;;;;4996165;28;20062;-68
2022/12/31 00:38:58;;;;;;;1.42;0.50;;;12.50;99.90;;;;;;5010856;28;20117;-67
2022/12/31 00:41:25;;;;;;;0.75;0.50;;;12.60;99.90;;;;;;5008949;28;20137;-67
2022/12/31 00:43:51;;;;;;;0.52;0.52;;;12.70;99.90;;;;;;5009805;28;20028;-67
2022/12/31 00:46:18;;;;;;;0.43;0.30;;;12.60;99.90;;;;;;5017839;28;20026;-66
2022/12/31 00:48:43;;;;;;;0.50;0.50;;;12.70;99.90;;;;;;5009539;28;20026;-68
2022/12/31 00:51:12;;;;;;;1.00;0.52;;;12.70;99.90;;;;;;5025829;28;20167;-67
2022/12/31 00:53:37;;;;;;;0.52;0.52;;;12.70;99.90;;;;;;5024132;28;20535;-69
2022/12/31 00:56:10;;;;;;;0.63;0.52;;;12.80;99.90;;;;;;5008893;28;20109;-67
2022/12/31 00:58:36;;;;;;;0.38;0.38;;;12.80;99.90;;;;;;5009852;28;20018;-68
2022/12/31 01:01:14;;;;;;;0.30;0.30;;;12.80;99.90;;;;;;5010865;28;20025;-67
2022/12/31 01:03:39;;;;;;;0.45;0.45;;;12.90;99.90;;;;;;5009956;28;20053;-67
2022/12/31 01:06:05;;;;;;;0.20;0.20;;;12.80;99.90;;;;;;5010431;28;20484;-68
2022/12/31 01:08:31;;;;;;;0.75;0.40;;;12.90;99.90;;;;;;5017841;28;20033;-68
2022/12/31 01:13:43;;;;;;;0.30;0.30;;;13.00;99.90;;;;;;5005727;28;20040;-67
2022/12/31 01:16:12;;;;;;;0.63;0.30;;;13.00;99.90;;;;;;5014428;28;20115;-68
2022/12/31 01:21:23;;;;;;;0.50;0.50;;;13.00;99.90;;;;;;4967190;28;20129;-63
2022/12/31 01:23:49;;;;;;;2.85;0.50;;;13.10;99.90;;;;;;4981420;28;20065;-63
2022/12/31 01:26:16;;;;;;;0.32;0.32;;;13.20;99.90;;;;;;4977857;28;20042;-62
2022/12/31 01:28:42;;;;;;;0.32;0.32;;;13.20;99.90;;;;;;4971369;28;20481;-63
2022/12/31 01:31:10;;;;;;;0.30;0.30;;;13.20;99.90;;;;;;4957455;28;20038;-63
2022/12/31 01:33:36;;;;;;;0.50;0.50;;;13.30;99.90;;;;;;4954438;28;20057;-63
2022/12/31 01:36:04;;;;;;;0.57;0.52;;;13.30;99.90;;;;;;4945586;28;20027;-60
2022/12/31 01:38:30;;;;;;;0.30;0.30;;;13.20;99.90;;;;;;4935604;28;20082;-63
2022/12/31 01:40:55;;;;;;;0.52;0.30;;;13.30;99.90;;;;;;4967735;28;20047;-62
2022/12/31 01:43:21;;;;;;;0.50;0.50;;;13.30;99.90;;;;;;4964334;28;20496;-63
2022/12/31 01:45:52;;;;;;;0.60;0.60;;;13.30;99.90;;;;;;4955841;28;20027;-63
2022/12/31 01:48:25;;;;;;;0.30;0.30;;;13.30;99.90;;;;;;4968626;28;20023;-63
2022/12/31 01:50:52;;;;;;;0.38;0.38;;;13.40;99.90;;;;;;4952459;28;20016;-63
2022/12/31 01:53:18;;;;;;;0.30;0.30;;;13.40;99.90;;;;;;4954071;28;20124;-62
2022/12/31 01:55:49;;;;;;;0.40;0.40;;;13.40;99.90;;;;;;4957165;28;20023;-62
2022/12/31 01:58:20;;;;;;;0.40;0.40;;;13.40;99.90;;;;;;4952929;28;20490;-62
2022/12/31 02:00:46;;;;;;;0.98;0.40;;;13.40;99.90;;;;;;4958014;28;20496;-63
2022/12/31 02:03:12;;;;;;;0.60;0.57;;;13.40;99.90;;;;;;4959198;28;20023;-62
2022/12/31 02:05:50;;;;;;;0.40;0.40;;;13.40;99.90;;;;;;4950986;28;20047;-62
2022/12/31 02:08:16;;;;;;;0.50;0.50;;;13.40;99.90;;;;;;4950288;28;20774;-63
2022/12/31 02:10:42;;;;;;;0.30;0.30;;;13.50;99.90;;;;;;4956150;28;20489;-63
2022/12/31 02:13:08;;;;;;;1.67;0.50;;;13.50;99.90;;;;;;4957269;28;20034;-63
2022/12/31 02:15:46;;;;;;;0.30;0.30;;;13.60;99.90;;;;;;4957761;28;20027;-63
2022/12/31 02:18:37;;;;;;;0.40;0.40;;;13.60;99.90;;;;;;4952949;28;20093;-63
2022/12/31 02:21:37;;;;;;;0.30;0.30;;;13.60;99.90;;;;;;4954464;28;20033;-61
2022/12/31 02:24:24;;;;;;;1.80;0.22;;;13.70;99.90;;;;;;4933512;28;20039;-62
2022/12/31 02:27:15;;;;;;;0.50;0.50;;;13.70;99.90;;;;;;4952915;28;20039;-61
2022/12/31 02:30:02;;;;;;;1.13;0.50;;;13.70;99.90;;;;;;4953674;28;20142;-63
2022/12/31 02:32:39;;;;;;;0.32;0.32;;;13.70;99.90;;;;;;4952380;28;20035;-63
2022/12/31 02:35:13;;;;;;;0.40;0.40;;;13.60;99.90;;;;;;4959230;28;20464;-63
2022/12/31 02:37:42;;;;;;;0.68;0.43;;;13.70;99.90;;;;;;4933638;28;20086;-63
2022/12/31 02:40:13;;;;;;;0.40;0.40;;;13.70;99.90;;;;;;4948169;28;20046;-62
2022/12/31 02:42:39;;;;;;;0.30;0.30;;;13.70;99.90;;;;;;4947302;28;20028;-62
2022/12/31 02:45:06;;;;;;;0.85;0.45;;;13.80;99.90;;;;;;4961337;28;20558;-62
2022/12/31 02:47:41;;;;;;;0.40;0.40;;;13.80;99.90;;;;;;4963229;28;20031;-62
2022/12/31 02:50:31;;;;;;;0.50;0.50;;;13.80;99.90;;;;;;4964520;28;20059;-62
2022/12/31 02:53:11;;;;;;;0.22;0.22;;;13.80;99.90;;;;;;4951747;28;20046;-63
2022/12/31 02:55:53;;;;;;;0.30;0.30;;;13.80;99.90;;;;;;4963764;28;20022;-63
2022/12/31 03:02:12;;;;;;;0.30;0.30;;;13.90;99.90;;;;;;4956299;28;20027;-62
2022/12/31 03:06:42;;;;;;;;;;;14.00;99.90;;;;;;4953260;28;20035;-63
2022/12/31 03:09:14;;;;;;;3.58;0.57;;;14.00;99.90;;;;;;4963371;28;20288;-63
2022/12/31 03:14:24;;;;;;;0.22;0.22;;;13.90;99.90;;;;;;4961331;28;20409;-63
2022/12/31 03:16:50;;;;;;;0.52;0.50;;;14.10;99.90;;;;;;4952523;28;20023;-63
2022/12/31 03:27:28;;;;;;;3.00;0.57;;;14.30;99.90;;;;;;4959600;28;20062;-62
2022/12/31 03:29:53;;;;;;;0.55;0.32;;;14.30;99.90;;;;;;4964113;28;20039;-62
2022/12/31 03:32:19;;;;;;;0.30;0.30;;;14.30;99.90;;;;;;4967360;28;20555;-63
2022/12/31 03:34:44;;;;;;;0.40;0.40;;;14.30;99.90;;;;;;4961637;28;20030;-62
2022/12/31 03:37:10;;;;;;;0.30;0.30;;;14.20;99.90;;;;;;4944511;28;20094;-62
2022/12/31 03:39:35;;;;;;;0.30;0.30;;;14.20;99.90;;;;;;4961184;28;20110;-61
2022/12/31 03:42:01;;;;;;;0.40;0.40;;;14.20;99.90;;;;;;4964636;28;20030;-62
2022/12/31 03:44:27;;;;;;;0.43;0.40;;;14.20;99.90;;;;;;4958438;28;20499;-63
2022/12/31 03:46:52;;;;;;;2.50;0.25;;;14.20;99.90;;;;;;4958504;28;20432;-62
2022/12/31 03:49:18;;;;;;;0.28;0.20;;;14.20;99.90;;;;;;4968514;28;20023;-61
2022/12/31 03:51:43;;;;;;;0.45;0.45;;;14.20;99.90;;;;;;4954215;28;20031;-62
2022/12/31 03:54:09;;;;;;;0.20;0.20;;;14.20;99.90;;;;;;4961764;28;20030;-62
2022/12/31 03:56:34;;;;;;;0.30;0.30;;;14.20;99.90;;;;;;4944622;28;20073;-63
2022/12/31 03:59:00;;;;;;;0.30;0.30;;;14.30;99.90;;;;;;4954504;28;20023;-63
2022/12/31 04:01:25;;;;;;;0.43;0.43;;;14.30;99.90;;;;;;4956342;28;20042;-62
2022/12/31 04:03:51;;;;;;;0.50;0.50;;;14.30;99.90;;;;;;4964628;28;20433;-63
2022/12/31 04:06:16;;;;;;;0.35;0.32;;;14.30;99.90;;;;;;4962954;28;20051;-63
2022/12/31 04:08:42;;;;;;;0.10;0.10;;;14.30;99.90;;;;;;4953950;28;20023;-63
2022/12/31 04:11:07;;;;;;;0.20;0.20;;;14.20;99.90;;;;;;4959860;28;20061;-63
2022/12/31 04:13:33;;;;;;;0.28;0.28;;;14.20;99.90;;;;;;4956702;28;20035;-63
2022/12/31 04:15:58;;;;;;;0.40;0.40;;;14.30;99.90;;;;;;4952348;28;20035;-63
2022/12/31 04:18:24;;;;;;;0.25;0.25;;;14.30;99.90;;;;;;4960766;28;20028;-63
2022/12/31 04:20:50;;;;;;;0.40;0.30;;;14.40;99.90;;;;;;4951979;28;20034;-62
2022/12/31 04:23:16;;;;;;;0.30;0.20;;;14.40;99.90;;;;;;4959670;28;20115;-63
2022/12/31 04:25:41;;;;;;;0.43;0.43;;;14.40;99.90;;;;;;4952384;28;20065;-62
2022/12/31 04:28:07;;;;;;;0.20;0.20;;;14.40;99.90;;;;;;4967437;28;20055;-63
2022/12/31 04:30:32;;;;;;;0.45;0.43;;;14.40;99.90;;;;;;4954778;28;20030;-62
2022/12/31 04:32:58;;;;;;;2.15;0.40;;;14.30;99.90;;;;;;4963661;28;20066;-63
2022/12/31 04:35:23;;;;;;;0.20;0.20;;;14.30;99.90;;;;;;4951254;28;20094;-62
2022/12/31 04:37:49;;;;;;;0.30;0.30;;;14.30;99.90;;;;;;4934630;28;20039;-63
2022/12/31 04:40:15;;;;;;;0.55;0.55;;;14.40;99.90;;;;;;4964678;28;20023;-63
2022/12/31 04:42:40;;;;;;;0.32;0.32;;;14.40;99.90;;;;;;4953227;28;20027;-63
2022/12/31 04:45:06;;;;;;;0.20;0.20;;;14.40;99.90;;;;;;4952098;28;20059;-63
2022/12/31 04:47:32;;;;;;;0.38;0.30;;;14.40;99.90;;;;;;4963467;28;20106;-63
2022/12/31 04:49:57;;;;;;;0.10;0.10;;;14.50;99.90;;;;;;4959708;28;20127;-62
2022/12/31 04:52:23;;;;;;;0.40;0.40;;;14.50;99.90;;;;;;4955798;28;20028;-63
2022/12/31 04:54:48;;;;;;;3.03;0.32;;;14.60;99.90;;;;;;4956551;28;20031;-63
2022/12/31 04:57:14;;;;;;;2.92;0.30;;;14.60;99.90;;;;;;4970245;28;20031;-63
2022/12/31 04:59:40;;;;;;;0.20;0.20;;;14.50;99.90;;;;;;4959540;28;20035;-62
2022/12/31 05:02:05;;;;;;;0.30;0.30;;;14.50;99.90;;;;;;4951673;28;20027;-64
2022/12/31 05:04:31;;;;;;;0.30;0.30;;;14.50;99.90;;;;;;4957996;28;20039;-61
2022/12/31 05:06:56;;;;;;;0.95;0.50;;;14.60;99.90;;;;;;4961402;28;20538;-61
2022/12/31 05:09:23;;;;;;;0.45;0.43;;;14.50;99.90;;;;;;4960281;28;20094;-63
2022/12/31 05:11:48;;;;;;;0.32;0.32;;;14.50;99.90;;;;;;4955818;28;20052;-63
2022/12/31 05:14:14;;;;;;;2.60;0.43;;;14.50;99.90;;;;;;4957101;28;20054;-63
2022/12/31 05:16:40;;;;;;;0.35;0.30;;;14.50;99.90;;;;;;4953215;28;20031;-63
2022/12/31 05:19:08;;;;;;;1.45;0.47;;;14.60;99.90;;;;;;4963909;28;20019;-62
2022/12/31 05:21:33;;;;;;;0.68;0.35;;;14.70;99.90;;;;;;4959770;28;20031;-63
2022/12/31 05:23:59;;;;;;;1.05;0.30;;;14.70;99.90;;;;;;4961064;28;20031;-63
2022/12/31 05:26:25;;;;;;;0.30;0.30;;;14.70;99.90;;;;;;4960067;28;20028;-63
2022/12/31 05:28:50;;;;;;;0.40;0.40;;;14.70;99.90;;;;;;4960152;28;20055;-63
2022/12/31 05:31:16;;;;;;;1.17;0.52;;;14.80;99.90;;;;;;4949345;28;20034;-63
2022/12/31 05:33:41;;;;;;;1.73;0.65;;;14.80;99.90;;;;;;4952557;28;20749;-62
2022/12/31 05:36:07;;;;;;;1.73;0.50;;;14.90;99.90;;;;;;4952648;28;20043;-62
2022/12/31 05:38:33;;;;;;;1.85;0.60;;;14.80;99.90;;;;;;4932819;28;20563;-62
2022/12/31 05:41:03;;;;;;;1.75;0.47;;;14.80;99.90;;;;;;4961456;28;20030;-63
2022/12/31 05:43:30;;;;;;;1.55;0.57;;;14.80;99.90;;;;;;4953008;28;20118;-62
2022/12/31 05:45:55;;;;;;;0.65;0.60;;;14.80;99.90;;;;;;4947730;29;20031;-63
2022/12/31 05:48:21;;;;;;;0.57;0.50;;;14.80;99.90;;;;;;4965136;28;20082;-63
2022/12/31 05:50:48;;;;;;;1.30;0.68;;;14.90;99.90;;;;;;4957498;28;20031;-64
2022/12/31 05:53:13;;;;;;;0.73;0.43;;;14.80;99.90;;;;;;4963732;28;20035;-63
2022/12/31 05:55:39;;;;;;;0.55;0.40;;;14.90;99.90;;;;;;4956507;28;20035;-62
2022/12/31 05:58:05;;;;;;;1.05;0.43;;;14.90;99.90;;;;;;4963643;28;20074;-62
2022/12/31 06:00:30;;;;;;;0.43;0.43;;;15.00;99.90;;;;;;4969052;28;20035;-62
2022/12/31 06:02:56;;;;;;;0.52;0.40;;;15.00;99.90;;;;;;4965366;28;20023;-62
2022/12/31 06:05:21;;;;;;;0.88;0.60;;;15.00;99.90;;;;;;4967915;28;20103;-63
2022/12/31 06:07:47;;;;;;;2.78;0.55;;;15.00;99.90;;;;;;4961186;28;20465;-63
2022/12/31 06:10:12;;;;;;;0.32;0.30;;;15.00;99.90;;;;;;4954696;28;20153;-62
2022/12/31 06:12:38;;;;;;;2.40;0.40;;;15.10;99.90;;;;;;4963097;28;20038;-63
2022/12/31 06:15:04;;;;;;;1.15;0.80;;;15.10;99.90;;;;;;4961197;28;20046;-63
2022/12/31 06:17:31;;;;;;;1.00;0.57;;;15.10;99.90;;;;;;4956790;28;20046;-63
2022/12/31 06:19:57;;;;;;;0.93;0.52;;;15.10;99.90;;;;;;4954082;28;20019;-63
2022/12/31 06:22:23;;;;;;;2.30;0.95;;;15.10;99.90;;;;;;4958739;28;20031;-63
2022/12/31 06:24:48;;;;;;;1.55;0.75;;;15.10;99.90;;;;;;4965853;28;20464;-63
2022/12/31 06:27:14;;;;;;;2.75;0.63;;;15.10;99.90;;;;;;4961263;28;20053;-63
2022/12/31 06:29:39;;;;;;;4.50;0.90;;;15.20;99.90;;;;;;4957474;28;20038;-62
2022/12/31 06:32:05;;;;;;;2.13;0.63;;;15.20;99.90;;;;;;4957383;28;20089;-62
2022/12/31 06:34:31;;;;;;;2.03;1.13;;;15.20;99.90;;;;;;4961633;28;20045;-63
2022/12/31 06:36:57;;;;;;;2.13;0.70;;;15.20;99.90;;;;;;4953727;28;20023;-63
2022/12/31 06:39:23;;;;;;;0.40;0.40;;;15.20;99.90;;;;;;4958509;28;20055;-63
2022/12/31 06:41:49;;;;;;;0.75;0.52;;;15.20;99.90;;;;;;4968863;28;20023;-62
2022/12/31 06:44:14;;;;;;;0.57;0.45;;;15.30;99.90;;;;;;4958310;28;20401;-63
2022/12/31 06:46:40;;;;;;;2.40;0.85;;;15.30;99.90;;;;;;4966192;28;20045;-63
2022/12/31 06:49:05;;;;;;;1.17;0.50;;;15.40;99.90;;;;;;4958990;28;20059;-62
2022/12/31 06:51:31;;;;;;;3.15;0.43;;;15.30;99.90;;;;;;4960389;28;20027;-63
2022/12/31 06:53:57;;;;;;;1.52;0.68;;;15.30;99.90;;;;;;4964841;28;20030;-63
2022/12/31 06:56:27;;;;;;;1.70;0.70;;;15.30;99.90;;;;;;4956737;28;20208;-63
2022/12/31 06:58:54;;;;;;;0.75;0.43;;;15.30;99.90;;;;;;4960829;28;20019;-63
2022/12/31 07:01:44;;;;;;;0.68;0.60;;;15.30;99.90;;;;;;4963214;28;20027;-63
2022/12/31 07:04:26;;;;;;;1.77;0.70;;;15.30;99.90;;;;;;4959908;28;20031;-63
2022/12/31 07:07:03;;;;;;;2.38;0.80;;;15.40;99.90;;;;;;4961112;28;20102;-63
2022/12/31 07:09:32;;;;;;;2.53;1.25;;;15.40;99.90;;;;;;4963804;28;20019;-63
2022/12/31 07:12:26;;;;;;;2.03;0.70;;;15.30;99.90;;;;;;4961025;28;20054;-63
2022/12/31 07:14:56;;;;;;;;;;;15.30;99.90;;;;;;4951897;28;20449;-63
2022/12/31 07:17:31;;;;;;;1.02;0.52;;;15.30;99.90;;;;;;4949797;28;20024;-63
2022/12/31 07:20:06;;;;;;;0.93;0.60;;;15.30;99.90;;;;;;4954339;28;20078;-64
2022/12/31 07:22:32;;;;;;;4.85;0.98;;;15.20;99.90;;;;;;4959602;28;20041;-63
2022/12/31 07:24:58;;;;;;;1.05;0.65;;;15.20;99.90;;;;;;4956612;28;20027;-63
2022/12/31 07:27:26;;;;;;;1.38;0.65;;;15.20;99.90;;;;;;4961136;28;20113;-64
2022/12/31 07:30:04;;;;;;;1.52;1.42;;;15.20;99.90;;;;;;4960377;28;20034;-63
2022/12/31 07:32:47;;;;;;;2.17;0.63;;;15.30;99.90;;;;;;4955255;28;20436;-62
2022/12/31 07:35:22;;;;;;;0.65;0.47;;;15.30;99.90;;;;;;4963516;28;20038;-61
2022/12/31 07:38:02;;;;;;;0.93;0.60;;;15.30;99.90;;;;;;4948274;28;20701;-62
2022/12/31 07:40:49;;;;;;;1.48;0.65;;;15.30;99.90;;;;;;4963063;28;20039;-62
2022/12/31 07:43:30;;;;;;;2.50;0.60;;;15.20;99.90;;;;;;4955391;28;20023;-63
2022/12/31 07:46:14;;;;;;;1.13;0.68;;;15.20;99.90;;;;;;4965764;28;20038;-62
2022/12/31 07:48:40;;;;;;;0.98;0.57;;;15.20;99.90;;;;;;4957822;28;20074;-63
2022/12/31 07:51:08;;;;;;;2.78;0.60;;;15.20;99.90;;;;;;4952991;28;20043;-62
2022/12/31 07:53:34;;;;;;;2.13;0.70;;;15.30;99.90;;;;;;5008301;22;20547;-64
2022/12/31 07:56:01;;;;;;;0.63;0.63;;;15.30;99.90;;;;;;5009803;28;20072;-64
2022/12/31 07:58:39;;;;;;;5.10;1.33;;;15.30;99.90;;;;;;5007080;28;20026;-64
2022/12/31 08:01:08;;;;;;;0.68;0.68;;;15.20;99.90;;;;;;5004850;28;20029;-64
2022/12/31 08:04:02;;;;;;;0.52;0.45;;;15.30;99.90;;;;;;5010017;28;20037;-64
2022/12/31 08:06:39;;;;;;;1.13;0.50;;;15.30;99.90;;;;;;5016508;28;20037;-64
2022/12/31 08:09:35;;;;;;;0.70;0.70;;;15.30;99.90;;;;;;4992958;28;20026;-64
2022/12/31 08:12:01;;;;;;;2.90;0.60;;;15.40;99.90;;;;;;5008718;28;20480;-64
2022/12/31 08:14:28;;;;;;;2.85;1.15;;;15.40;99.90;;;;;;5010282;28;20041;-64
2022/12/31 08:16:54;;;;;;;2.30;0.60;;;15.40;99.90;;;;;;5012909;28;20018;-64
2022/12/31 08:19:29;;;;;;;1.42;0.60;;;15.30;99.90;;;;;;5009143;28;20014;-65
2022/12/31 08:22:21;;;;;;;1.77;0.57;;;15.30;99.90;;;;;;5008062;28;20021;-64
2022/12/31 08:24:50;;;;;;;0.47;0.47;;;15.30;99.90;;;;;;5009673;28;20029;-65
2022/12/31 08:27:35;;;;;;;1.40;0.88;;;15.30;99.90;;;;;;5017379;28;20376;-63
2022/12/31 08:30:08;;;;;;;1.90;0.60;;;15.30;99.90;;;;;;5015170;28;20495;-65
2022/12/31 08:32:49;;;;;;;5.43;0.75;;;15.30;99.90;;;;;;5018840;28;20030;-65
2022/12/31 08:35:33;;;;;;;3.10;0.90;;;15.30;99.90;;;;;;5008765;28;20026;-64
2022/12/31 08:38:20;;;;;;;1.00;0.40;;;15.40;99.90;;;;;;4998188;28;20730;-64
2022/12/31 08:41:01;;;;;;;1.63;0.82;;;15.40;99.90;;;;;;5012177;28;20029;-62
2022/12/31 08:43:40;;;;;;;1.15;0.70;;;15.40;99.90;;;;;;5011719;28;20018;-64
2022/12/31 08:46:32;;;;;;;4.68;1.08;;;15.40;99.90;;;;;;5017650;28;20121;-64
2022/12/31 08:48:58;;;;;;;1.73;0.70;;;15.40;99.90;;;;;;5004431;28;20041;-64
2022/12/31 08:51:25;;;;;;;4.13;0.88;;;15.40;99.90;;;;;;5007416;28;20575;-65
2022/12/31 08:53:52;;;;;;;7.05;1.08;;;15.40;99.90;;;;;;4991217;28;20092;-64
2022/12/31 08:56:55;;;;;;;2.63;1.33;;;15.50;99.90;;;;;;5016027;28;20547;-64
2022/12/31 08:59:49;;;;;;;2.05;0.60;;;15.50;99.90;;;;;;4954942;28;20037;-63
2022/12/31 09:02:25;;;;;;;1.10;0.77;;;15.60;99.90;;;;;;5010818;28;20036;-63
2022/12/31 09:05:22;;;;;;;3.00;0.63;;;15.60;99.90;;;;;;5015772;28;20624;-64
2022/12/31 09:08:17;;;;;;;1.55;0.68;;;15.70;99.90;;;;;;5004367;28;20064;-65
2022/12/31 09:11:02;;;;;;;3.45;0.65;;;15.70;99.90;;;;;;5009846;28;20501;-64
2022/12/31 09:13:57;;;;;;;1.17;0.70;;;15.70;99.90;;;;;;5013246;28;20034;-63
2022/12/31 09:16:43;;;;;;;1.30;0.60;;;15.70;99.90;;;;;;4997682;28;20046;-65
2022/12/31 09:19:09;;;;;;;1.25;0.47;;;15.70;99.90;;;;;;4999503;28;20550;-64
2022/12/31 09:21:36;;;;;;;5.88;1.13;;;15.80;99.90;;;;;;5007087;28;20025;-64
2022/12/31 09:24:03;;;;;;;4.78;1.13;;;15.80;99.90;;;;;;4997451;28;20112;-64
2022/12/31 09:26:40;;;;;;;1.65;0.65;;;15.80;99.90;;;;;;5015532;28;20439;-63
2022/12/31 09:29:06;;;;;;;2.50;0.80;;;15.80;99.90;;;;;;5009136;28;20113;-64
2022/12/31 09:32:05;;;;;;;3.10;0.70;;;15.80;99.90;;;;;;5009143;28;20117;-64
2022/12/31 09:34:52;;;;;;;5.20;0.90;;;15.80;99.90;;;;;;5020137;28;20087;-64
2022/12/31 09:37:40;;;;;;;2.83;1.00;;;15.90;99.90;;;;;;5016241;28;20476;-64
2022/12/31 09:40:27;;;;;;;1.10;1.00;;;15.80;99.90;;;;;;4986940;28;20050;-64
2022/12/31 09:43:10;;;;;;;1.85;0.70;;;15.80;99.90;;;;;;5007535;28;20447;-64
2022/12/31 09:46:23;;;;;;;2.65;0.90;;;15.90;99.90;;;;;;5007101;28;20028;-64
2022/12/31 09:48:49;;;;;;;2.92;0.90;;;15.90;99.90;;;;;;4991721;28;20077;-64
2022/12/31 09:51:20;;;;;;;1.45;0.40;;;15.90;99.90;;;;;;5005744;28;20065;-64
2022/12/31 09:54:12;;;;;;;4.85;0.80;;;15.80;99.90;;;;;;5009031;28;20517;-64
2022/12/31 09:56:49;;;;;;;1.65;0.65;;;15.90;99.90;;;;;;4997050;28;20041;-63
2022/12/31 09:59:37;;;;;;;1.38;0.82;;;15.90;99.90;;;;;;4991762;28;20176;-64
2022/12/31 10:02:14;;;;;;;4.07;0.98;;;15.80;99.90;;;;;;5005974;28;20084;-64
2022/12/31 10:04:58;;;;;;;3.50;0.80;;;15.90;99.90;;;;;;5011850;28;20419;-64
2022/12/31 10:07:50;;;;;;;2.95;0.95;;;15.80;99.90;;;;;;5004283;28;20042;-64
2022/12/31 10:10:54;;;;;;;1.92;0.60;;;15.80;99.90;;;;;;5002459;28;20356;-64
2022/12/31 10:13:26;;;;;;;2.53;0.85;;;15.80;99.90;;;;;;5007425;28;20038;-65
2022/12/31 10:16:04;;;;;;;2.38;0.60;;;15.80;99.90;;;;;;5011292;28;20446;-63
2022/12/31 10:18:54;;;;;;;1.02;0.60;;;15.80;99.90;;;;;;5013387;28;20030;-64
2022/12/31 10:21:28;;;;;;;5.30;1.10;;;15.80;99.90;;;;;;4990465;28;20026;-65
2022/12/31 10:24:24;;;;;;;3.15;0.70;;;15.80;99.90;;;;;;5013493;28;20043;-64
2022/12/31 10:27:00;;;;;;;5.47;1.05;;;15.90;99.90;;;;;;4988981;28;20117;-65
2022/12/31 10:29:46;;;;;;;4.25;0.77;;;15.90;99.90;;;;;;4996120;28;20018;-64
2022/12/31 10:32:42;;;;;;;2.05;0.70;;;15.90;99.90;;;;;;5011008;28;20057;-64
2022/12/31 10:35:27;;;;;;;0.57;0.40;;;15.90;99.90;;;;;;5025250;28;20092;-66
2022/12/31 10:38:15;;;;;;;2.97;0.90;;;16.00;99.90;;;;;;5009242;28;20026;-65
2022/12/31 10:41:09;;;;;;;2.05;0.88;;;16.00;99.90;;;;;;5014138;28;20069;-64
2022/12/31 10:43:55;;;;;;;4.47;1.20;;;16.00;99.90;;;;;;5010655;28;20112;-65
2022/12/31 10:46:59;;;;;;;1.40;0.70;;;16.00;99.90;;;;;;5013379;28;20038;-65
2022/12/31 10:49:36;;;;;;;2.08;0.60;;;16.00;99.90;;;;;;4954390;28;20063;-64
2022/12/31 10:52:21;;;;;;;1.23;0.82;;;16.00;99.90;;;;;;5010504;28;20033;-64
2022/12/31 10:54:58;;;;;;;;;;;16.00;99.90;;;;;;5011233;28;20473;-64
2022/12/31 10:57:53;;;;;;;2.65;0.88;;;16.00;99.90;;;;;;5008438;28;19913;-65
2022/12/31 11:00:23;;;;;;;0.50;0.50;;;15.90;99.90;;;;;;5011715;28;20022;-64
2022/12/31 11:03:17;;;;;;;3.78;1.90;;;15.90;99.90;;;;;;5002650;28;20018;-64
2022/12/31 11:05:42;;;;;;;6.20;1.33;;;15.90;99.90;;;;;;5004033;28;20491;-64
2022/12/31 11:08:10;;;;;;;2.90;0.80;;;16.00;99.90;;;;;;5007349;28;20033;-64
2022/12/31 11:11:10;;;;;;;3.45;1.05;;;16.00;99.90;;;;;;5010647;28;20547;-64
2022/12/31 11:13:39;;;;;;;1.83;0.63;;;16.00;99.90;;;;;;5012718;28;20037;-64
2022/12/31 11:16:10;;;;;;;1.30;0.73;;;16.10;99.90;;;;;;5002580;28;20030;-64
2022/12/31 11:19:16;;;;;;;3.65;0.80;;;16.30;99.90;;;;;;5022048;28;20022;-66
2022/12/31 11:22:06;;;;;;;2.28;0.90;;;16.30;99.90;;;;;;5012397;28;20060;-64
2022/12/31 11:25:06;;;;;;;1.50;0.60;;;16.20;99.90;;;;;;5028542;28;20104;-65
2022/12/31 11:27:32;;;;;;;3.88;1.42;;;16.30;99.90;;;;;;5008258;28;20357;-65
2022/12/31 11:30:39;;;;;;;1.40;0.77;;;16.20;99.90;;;;;;5011490;28;20014;-64
2022/12/31 11:33:31;;;;;;;1.73;0.98;;;16.20;99.90;;;;;;5008553;28;20034;-64
2022/12/31 11:36:23;;;;;;;2.45;0.90;;;16.20;99.90;;;;;;5012137;28;20029;-64
2022/12/31 11:39:16;;;;;;;2.30;1.00;;;16.20;99.90;;;;;;4987864;28;20058;-63
2022/12/31 11:42:22;;;;;;;3.53;1.20;;;16.20;99.90;;;;;;5010980;28;20462;-64
2022/12/31 11:45:09;;;;;;;4.82;1.00;;;16.30;99.90;;;;;;5012750;28;20026;-64
2022/12/31 11:48:10;;;;;;;2.63;0.80;;;16.40;99.90;;;;;;5013709;28;20407;-64
2022/12/31 11:50:49;;;;;;;2.40;0.80;;;16.40;99.90;;;;;;5011300;28;20036;-64
2022/12/31 11:53:42;;;;;;;2.30;0.65;;;16.50;99.90;;;;;;5016014;28;20040;-64
2022/12/31 11:56:24;;;;;;;3.85;1.00;;;16.50;99.90;;;;;;5010815;28;20033;-64
2022/12/31 11:58:52;;;;;;;5.93;1.25;;;16.50;99.90;;;;;;5013833;28;20105;-65
2022/12/31 12:01:56;;;;;;;4.28;0.75;;;16.50;99.90;;;;;;5008694;28;20112;-65
2022/12/31 12:04:22;;;;;;;1.58;0.90;;;16.40;99.90;;;;;;5004050;28;20154;-64
2022/12/31 12:06:49;;;;;;;4.70;0.90;;;16.40;99.90;;;;;;5012572;28;20030;-65
2022/12/31 12:09:29;;;;;;;4.53;0.98;;;16.30;99.90;;;;;;5018812;28;20036;-64
2022/12/31 12:12:03;;;;;;;1.48;0.80;;;16.20;99.90;;;;;;5022721;28;20038;-65
2022/12/31 12:14:37;;;;;;;2.83;1.17;;;16.20;99.90;;;;;;5027769;28;20037;-64
2022/12/31 12:17:07;;;;;;;2.17;1.05;;;16.20;99.90;;;;;;5011386;28;20037;-65
2022/12/31 12:19:34;;;;;;;5.28;0.70;;;16.30;99.90;;;;;;5004221;28;20117;-64
2022/12/31 12:22:12;;;;;;;4.53;1.10;;;16.30;99.90;;;;;;5007507;28;20026;-64
2022/12/31 12:24:37;;;;;;;2.75;1.00;;;16.30;99.90;;;;;;4985233;28;20045;-64
2022/12/31 12:27:03;;;;;;;5.20;1.05;;;16.30;99.90;;;;;;5012350;28;20049;-64
2022/12/31 12:29:35;;;;;;;7.30;1.13;;;16.30;99.90;;;;;;5012776;28;20099;-65
2022/12/31 12:32:05;;;;;;;4.10;0.80;;;16.30;99.90;;;;;;5018434;28;20029;-64
2022/12/31 12:34:33;;;;;;;7.43;1.58;;;16.20;99.90;;;;;;5010391;28;20033;-64
2022/12/31 12:36:59;;;;;;;2.60;0.88;;;16.20;99.90;;;;;;5008927;28;20101;-64
2022/12/31 12:39:27;;;;;;;2.72;0.80;;;16.20;99.90;;;;;;4989651;28;20169;-65
2022/12/31 12:42:09;;;;;;;3.42;1.17;;;16.30;99.90;;;;;;4994789;28;20030;-64
2022/12/31 12:44:35;;;;;;;4.03;0.82;;;16.30;99.90;;;;;;4998243;28;20030;-64
2022/12/31 12:47:04;;;;;;;4.50;1.02;;;16.30;99.90;;;;;;4996782;28;20029;-65
2022/12/31 12:49:45;;;;;;;4.13;0.88;;;16.40;99.90;;;;;;4989609;28;20031;-62
2022/12/31 12:52:29;;;;;;;1.70;0.95;;;16.40;99.90;;;;;;4988851;28;20034;-64
2022/12/31 12:55:12;;;;;;;3.20;0.70;;;16.30;99.90;;;;;;4982115;28;20461;-64
2022/12/31 12:57:45;;;;;;;4.78;1.30;;;16.30;99.90;;;;;;4992772;28;20030;-63
2022/12/31 13:00:16;;;;;;;3.33;0.60;;;16.30;99.90;;;;;;4996400;28;20026;-64
2022/12/31 13:02:42;;;;;;;4.90;1.00;;;16.30;99.90;;;;;;4988058;28;20023;-63
2022/12/31 13:05:16;;;;;;;2.45;1.08;;;16.40;99.90;;;;;;4969999;28;20091;-65
2022/12/31 13:07:57;;;;;;;3.55;0.73;;;16.40;99.90;;;;;;4988551;28;20392;-65
2022/12/31 13:10:54;;;;;;;3.38;0.90;;;16.50;99.90;;;;;;4983987;28;20034;-63
2022/12/31 13:13:31;;;;;;;5.43;1.65;;;16.40;99.90;;;;;;4985587;28;20036;-64
2022/12/31 13:16:07;;;;;;;6.50;0.80;;;16.50;99.90;;;;;;4987679;28;21352;-64
2022/12/31 13:18:56;;;;;;;5.60;1.13;;;16.50;99.90;;;;;;4988842;28;20025;-64
2022/12/31 13:21:41;;;;;;;3.65;0.80;;;16.50;99.90;;;;;;4969134;28;20019;-64
2022/12/31 13:24:46;;;;;;;2.70;0.93;;;16.50;99.90;;;;;;4967981;28;20069;-64
2022/12/31 13:27:35;;;;;;;5.88;0.80;;;16.50;99.90;;;;;;4943751;28;20031;-64
2022/12/31 13:30:06;;;;;;;1.27;0.80;;;16.50;99.90;;;;;;4987680;28;20037;-64
2022/12/31 13:32:41;;;;;;;2.20;0.85;;;16.40;99.90;;;;;;4985645;28;20109;-64
2022/12/31 13:35:31;;;;;;;2.33;0.90;;;16.30;99.90;;;;;;4987253;28;20022;-64
2022/12/31 13:38:05;;;;;;;5.82;0.82;;;16.30;99.90;;;;;;4983244;28;20114;-64
2022/12/31 13:40:39;;;;;;;2.63;0.70;;;16.10;99.90;;;;;;4956941;28;20673;-64
2022/12/31 13:43:07;;;;;;;;;;;16.10;99.90;;;;;;4985925;28;20786;-64
2022/12/31 13:45:39;;;;;;;1.65;0.93;;;16.10;99.90;;;;;;4986017;28;19918;-64